LGKZ/KZI METAR and TAF weather

Enter ICAO airport designator
Station Type Date Time Source
LGKZ METAR 2020/02/24 06:50 UTC NOAA

LGKZ 240650Z 00000KT 9999 FEW080 10/M05 Q1017


Station Type Date Time Source
LGKZ Decoded METAR 2020/02/24 06:50 UTC NOAA

Kozani Airport , Greece (LGKZ) 40-18N 021-47E 627M
Feb 24, 2020 - 01:50 AM EST / 2020.02.24 0650 UTC
Wind: Calm:0
Visibility: greater than 7 mile(s):0
Sky conditions: mostly clear
Temperature: 50 F (10 C)
Dew Point: 23 F (-5 C)
Relative Humidity: 34%
Pressure (altimeter): 30.03 in. Hg (1017 hPa)
ob: LGKZ 240650Z 00000KT 9999 FEW080 10/M05 Q1017
cycle: 7

Station Type Date Time Source
LGKZ TAF UTC NOAA

Error!

Example: see airport list